Time;durP1;ratioP1;P1;durP2;ratioP2;P2;SDS_P1;SDS_P2;PMS_P1;PMS_P2;Temp;Humidity;BMP_temperature;BMP_pressure;BME280_temperature;BME280_humidity;BME280_pressure;Samples;Min_cycle;Max_cycle;Signal;HPM_P1;HPM_P2
2023/06/16 04:45:16;;;;;;;;;;;;;;;22.60;43.84;96962.56;4248625;27;10187;-66
2023/06/16 04:47:19;;;;;;;;;;;;;;;22.87;43.35;96965.06;4248963;27;5651;-67
2023/06/16 04:49:22;;;;;;;;;;;;;;;23.09;43.08;96964.84;4248811;27;5610;-66
2023/06/16 04:51:26;;;;;;;;;;;;;;;23.26;43.02;96966.47;4248869;27;5714;-66
2023/06/16 04:53:29;;;;;;;;;;;;;;;23.39;42.70;96964.03;4248856;27;5920;-65
2023/06/16 04:55:32;;;;;;;;;;;;;;;23.52;43.11;96962.69;4249179;27;5737;-66
2023/06/16 04:57:36;;;;;;;;;;;;;;;23.62;42.83;96965.41;4243213;27;6200;-66
2023/06/16 04:59:38;;;;;;;;;;;;;;;23.71;42.80;96961.06;4249108;27;5594;-65
2023/06/16 05:01:43;;;;;;;;;;;;;;;23.79;43.06;96962.41;4248623;27;5822;-66
2023/06/16 05:03:45;;;;;;;;;;;;;;;23.85;42.76;96960.50;4247910;27;6275;-66
2023/06/16 05:05:49;;;;;;;;;;;;;;;23.88;42.66;96959.94;4248208;27;5594;-65
2023/06/16 05:07:52;;;;;;;;;;;;;;;23.93;42.87;96968.03;4248130;27;5610;-66
2023/06/16 05:09:54;;;;;;;;;;;;;;;23.97;43.10;96961.00;4248460;27;5685;-66
2023/06/16 05:11:57;;;;;;;;;;;;;;;23.99;43.01;96964.22;4247945;27;5613;-65
2023/06/16 05:14:00;;;;;;;;;;;;;;;24.02;43.05;96961.00;4247425;27;5821;-66
2023/06/16 05:16:03;;;;;;;;;;;;;;;24.03;42.77;96962.63;4237170;27;5887;-65
2023/06/16 05:18:08;;;;;;;;;;;;;;;24.04;43.22;96965.03;4247800;27;5861;-65
2023/06/16 05:20:12;;;;;;;;;;;;;;;24.11;42.94;96967.44;4248244;27;5601;-66
2023/06/16 05:22:15;;;;;;;;;;;;;;;24.17;43.08;96962.84;4246062;27;5762;-66
2023/06/16 05:24:18;;;;;;;;;;;;;;;24.21;43.15;96970.09;4247705;27;5112;-66
2023/06/16 05:26:21;;;;;;;;;;;;;;;24.26;42.82;96967.41;4243380;27;5864;-66
2023/06/16 05:28:24;;;;;;;;;;;;;;;24.32;43.17;96969.00;4240412;27;5598;-66
2023/06/16 05:30:27;;;;;;;;;;;;;;;24.38;43.18;96972.50;4243993;27;5601;-67
2023/06/16 05:32:30;;;;;;;;;;;;;;;24.40;43.04;96978.44;4239438;27;5757;-66
2023/06/16 05:34:35;;;;;;;;;;;;;;;24.41;42.53;96976.53;4233375;27;5597;-66
2023/06/16 05:36:38;;;;;;;;;;;;;;;24.42;42.57;96972.75;4247946;27;5651;-66
2023/06/16 05:38:41;;;;;;;;;;;;;;;24.47;42.40;96972.75;4247613;27;5657;-66
2023/06/16 05:40:44;;;;;;;;;;;;;;;24.53;42.43;96977.84;4240533;27;5848;-65
2023/06/16 05:42:47;;;;;;;;;;;;;;;24.61;42.58;96965.66;4230648;28;5673;-66
2023/06/16 05:44:50;;;;;;;;;;;;;;;24.69;42.26;96975.88;4227013;28;5811;-65
2023/06/16 05:46:53;;;;;;;;;;;;;;;24.76;42.21;96972.84;4229459;28;5676;-65
2023/06/16 05:48:57;;;;;;;;;;;;;;;24.79;42.23;96975.00;4225853;28;5651;-66
2023/06/16 05:51:02;;;;;;;;;;;;;;;24.80;42.38;96984.72;4236402;28;5782;-66
2023/06/16 05:53:05;;;;;;;;;;;;;;;24.80;42.27;96982.81;4228059;28;5900;-65
2023/06/16 05:55:09;;;;;;;;;;;;;;;24.86;42.05;96992.53;4236460;28;5625;-66
2023/06/16 05:57:12;;;;;;;;;;;;;;;24.90;41.72;96988.16;4228273;28;5850;-66
2023/06/16 05:59:15;;;;;;;;;;;;;;;24.94;41.56;96989.25;4236770;28;5668;-66
2023/06/16 06:01:18;;;;;;;;;;;;;;;24.98;42.02;96992.19;4236338;28;5659;-66
2023/06/16 06:03:21;;;;;;;;;;;;;;;24.92;41.80;96990.63;4236127;28;5598;-65
2023/06/16 06:05:24;;;;;;;;;;;;;;;24.91;41.76;96992.47;4233985;28;5651;-66
2023/06/16 06:07:29;;;;;;;;;;;;;;;24.98;41.35;96998.41;4229840;28;5762;-66
2023/06/16 06:09:31;;;;;;;;;;;;;;;25.06;41.66;97004.34;4236488;28;5606;-66
2023/06/16 06:11:34;;;;;;;;;;;;;;;25.11;40.99;97004.28;4236074;28;6283;-66
2023/06/16 06:13:38;;;;;;;;;;;;;;;25.16;41.34;97005.09;4235979;28;6311;-66
2023/06/16 06:15:42;;;;;;;;;;;;;;;25.25;41.23;97010.69;4234724;28;5712;-66
2023/06/16 06:17:45;;;;;;;;;;;;;;;25.33;40.69;97010.09;4230659;27;6485;-66
2023/06/16 06:19:48;;;;;;;;;;;;;;;25.39;40.58;97016.28;4232551;28;5605;-66
2023/06/16 06:21:51;;;;;;;;;;;;;;;25.45;41.03;97013.25;4235173;28;5808;-66
2023/06/16 06:23:55;;;;;;;;;;;;;;;25.49;40.63;97019.72;4233930;28;5673;-66
2023/06/16 06:25:58;;;;;;;;;;;;;;;25.53;40.74;97020.75;4234443;28;5605;-66
2023/06/16 06:28:01;;;;;;;;;;;;;;;25.61;40.42;97026.66;4236023;28;5681;-66
2023/06/16 06:30:05;;;;;;;;;;;;;;;25.65;40.20;97014.97;4235939;28;5673;-66
2023/06/16 06:32:11;;;;;;;;;;;;;;;25.67;40.42;97018.19;4227664;28;5605;-66
2023/06/16 06:34:14;;;;;;;;;;;;;;;25.67;40.25;97022.81;4235794;28;6612;-66
2023/06/16 06:36:25;;;;;;;;;;;;;;;25.63;39.78;97029.91;4235413;28;5626;-65
2023/06/16 06:38:28;;;;;;;;;;;;;;;25.64;39.75;97028.78;4235919;28;5681;-66
2023/06/16 06:40:32;;;;;;;;;;;;;;;25.63;39.83;97033.41;4235888;28;5079;-66
2023/06/16 06:42:36;;;;;;;;;;;;;;;25.66;39.49;97029.31;4235764;28;5655;-65
2023/06/16 06:44:39;;;;;;;;;;;;;;;25.69;39.53;97029.56;4227002;28;5696;-65
2023/06/16 06:46:42;;;;;;;;;;;;;;;25.70;39.33;97027.69;4231588;28;5760;-65
2023/06/16 06:48:45;;;;;;;;;;;;;;;25.70;39.21;97036.59;4223480;28;5665;-66
2023/06/16 06:50:49;;;;;;;;;;;;;;;25.72;39.23;97039.06;4235208;28;5817;-66
2023/06/16 06:52:52;;;;;;;;;;;;;;;25.74;39.44;97034.16;4235520;28;5606;-66
2023/06/16 06:54:56;;;;;;;;;;;;;;;25.74;39.10;97040.38;4235434;28;5793;-66
2023/06/16 06:57:00;;;;;;;;;;;;;;;25.75;39.15;97035.78;4226370;28;5631;-66
2023/06/16 06:59:11;;;;;;;;;;;;;;;25.75;38.90;97033.88;4234187;28;5722;-66
2023/06/16 07:01:14;;;;;;;;;;;;;;;25.77;38.84;97039.81;4235447;28;5663;-65
2023/06/16 07:03:17;;;;;;;;;;;;;;;25.77;38.71;97037.09;4235159;28;6161;-66
2023/06/16 07:05:20;;;;;;;;;;;;;;;25.73;39.16;97037.97;4235118;28;5673;-66
2023/06/16 07:07:23;;;;;;;;;;;;;;;25.69;38.91;97044.97;4233431;28;5613;-66
2023/06/16 07:09:27;;;;;;;;;;;;;;;25.65;38.96;97050.16;4227248;28;5593;-66
2023/06/16 07:11:34;;;;;;;;;;;;;;;25.61;39.14;97042.91;4231048;28;5616;-66
2023/06/16 07:13:38;;;;;;;;;;;;;;;25.60;38.93;97038.59;4234794;28;5713;-66
2023/06/16 07:15:41;;;;;;;;;;;;;;;25.57;38.90;97042.66;4235231;28;5730;-65
2023/06/16 07:17:44;;;;;;;;;;;;;;;25.54;38.66;97043.22;4229910;28;5540;-66
2023/06/16 07:19:47;;;;;;;;;;;;;;;25.52;38.31;97038.09;4231257;28;5637;-65
2023/06/16 07:21:50;;;;;;;;;;;;;;;25.53;38.40;97037.00;4221148;28;5670;-65
2023/06/16 07:23:53;;;;;;;;;;;;;;;25.53;38.47;97037.00;4232436;28;5740;-65
2023/06/16 07:25:58;;;;;;;;;;;;;;;25.54;38.46;97038.63;4229051;28;5650;-66
2023/06/16 07:28:01;;;;;;;;;;;;;;;25.52;38.53;97035.38;4234261;28;5651;-66
2023/06/16 07:30:07;;;;;;;;;;;;;;;25.51;38.24;97044.59;4233362;28;5691;-66
2023/06/16 07:32:12;;;;;;;;;;;;;;;25.44;38.45;97041.41;4229509;27;6288;-66
2023/06/16 07:34:15;;;;;;;;;;;;;;;25.43;38.59;97039.78;4234348;28;5685;-65
2023/06/16 07:36:18;;;;;;;;;;;;;;;25.44;38.20;97038.69;4232798;28;5597;-65
2023/06/16 07:38:21;;;;;;;;;;;;;;;25.45;38.50;97042.19;4220208;28;5620;-65
2023/06/16 07:40:24;;;;;;;;;;;;;;;25.43;38.40;97039.78;4233468;28;5823;-66
2023/06/16 07:42:27;;;;;;;;;;;;;;;25.42;38.25;97042.78;4233411;28;5688;-66
2023/06/16 07:44:30;;;;;;;;;;;;;;;25.42;38.76;97042.78;4218375;28;5197;-65
2023/06/16 07:46:39;;;;;;;;;;;;;;;25.40;38.59;97034.94;4232960;28;5731;-66
2023/06/16 07:48:42;;;;;;;;;;;;;;;25.40;38.32;97034.94;4235558;28;5598;-66
2023/06/16 07:50:45;;;;;;;;;;;;;;;25.41;38.30;97036.56;4223620;28;5612;-66
2023/06/16 07:52:48;;;;;;;;;;;;;;;25.41;38.67;97033.84;4232013;28;5630;-65
2023/06/16 07:54:51;;;;;;;;;;;;;;;25.42;38.40;97037.38;4211818;28;5620;-66
2023/06/16 07:56:54;;;;;;;;;;;;;;;25.40;38.67;97032.25;4232349;28;5685;-65
2023/06/16 07:58:57;;;;;;;;;;;;;;;25.40;38.80;97032.25;4220423;28;5768;-65
2023/06/16 08:01:00;;;;;;;;;;;;;;;25.40;38.34;97034.94;4230917;28;5625;-65
2023/06/16 08:03:04;;;;;;;;;;;;;;;25.40;38.25;97034.94;4234431;27;5794;-66
2023/06/16 08:05:08;;;;;;;;;;;;;;;25.40;38.73;97032.25;4231181;28;5685;-65
2023/06/16 08:07:12;;;;;;;;;;;;;;;25.39;38.37;97033.34;4218061;28;5616;-65
2023/06/16 08:09:15;;;;;;;;;;;;;;;25.40;38.61;97028.72;4199545;28;5632;-65
2023/06/16 08:11:19;;;;;;;;;;;;;;;25.38;38.64;97026.31;4199671;28;5738;-65
2023/06/16 08:13:23;;;;;;;;;;;;;;;25.40;38.73;97024.13;4217718;28;5775;-66
2023/06/16 08:15:26;;;;;;;;;;;;;;;25.39;38.66;97027.91;4199780;28;5713;-65
2023/06/16 08:17:30;;;;;;;;;;;;;;;25.43;39.03;97020.03;4217520;28;5628;-65
2023/06/16 08:19:37;;;;;;;;;;;;;;;25.43;38.97;97020.84;4199952;28;5636;-65
2023/06/16 08:21:41;;;;;;;;;;;;;;;25.44;38.57;97021.66;4217831;28;5637;-66
2023/06/16 08:23:46;;;;;;;;;;;;;;;25.43;38.86;97018.13;4224706;28;5586;-65
2023/06/16 08:25:51;;;;;;;;;;;;;;;25.45;39.23;97018.66;4234386;28;5770;-64
2023/06/16 08:27:54;;;;;;;;;;;;;;;25.46;38.86;97022.97;4233615;28;5609;-65
2023/06/16 08:29:58;;;;;;;;;;;;;;;25.46;39.15;97014.03;4234503;28;5593;-65
2023/06/16 08:32:06;;;;;;;;;;;;;;;25.47;38.95;97012.94;4231941;28;5861;-65
2023/06/16 08:34:13;;;;;;;;;;;;;;;25.46;38.85;97017.56;4234520;28;5655;-65
2023/06/16 08:36:20;;;;;;;;;;;;;;;25.44;38.88;97019.75;4234343;28;5714;-65
2023/06/16 08:38:23;;;;;;;;;;;;;;;25.44;39.25;97010.81;4233604;28;5629;-65
2023/06/16 08:40:27;;;;;;;;;;;;;;;25.41;39.30;97023.03;4195337;28;5797;-65
2023/06/16 08:42:31;;;;;;;;;;;;;;;25.38;39.25;97010.06;4232234;28;5638;-65
2023/06/16 08:44:36;;;;;;;;;;;;;;;25.39;39.05;97011.69;4217133;28;5733;-65
2023/06/16 08:46:44;;;;;;;;;;;;;;;25.41;39.16;97014.91;4217329;28;5092;-65
2023/06/16 08:48:49;;;;;;;;;;;;;;;25.44;39.51;97011.63;4217310;28;5612;-66
2023/06/16 08:50:55;;;;;;;;;;;;;;;25.43;39.40;97011.91;4217121;28;5716;-65
2023/06/16 08:53:00;;;;;;;;;;;;;;;25.43;39.39;97012.72;4216651;28;5897;-65
2023/06/16 08:55:09;;;;;;;;;;;;;;;25.42;38.87;97008.41;4199425;28;7691;-65
2023/06/16 08:57:14;;;;;;;;;;;;;;;25.42;39.16;97003.00;4220404;28;5796;-66
2023/06/16 08:59:21;;;;;;;;;;;;;;;25.43;38.97;97006.50;4234174;28;5665;-66
2023/06/16 09:01:28;;;;;;;;;;;;;;;25.42;39.08;97011.09;4234410;28;5594;-65
2023/06/16 09:03:37;;;;;;;;;;;;;;;25.42;39.17;97002.19;4215924;28;5822;-65
2023/06/16 09:05:43;;;;;;;;;;;;;;;25.44;38.76;97006.22;4199833;28;5639;-66
2023/06/16 09:07:49;;;;;;;;;;;;;;;25.45;38.80;97005.13;4217225;28;5096;-65
2023/06/16 09:10:02;;;;;;;;;;;;;;;25.47;39.02;96999.41;4217363;28;5737;-66
2023/06/16 09:12:09;;;;;;;;;;;;;;;25.46;39.01;96998.63;4218895;28;5837;-66
2023/06/16 09:14:20;;;;;;;;;;;;;;;25.47;38.98;96991.31;4234434;28;5685;-65
2023/06/16 09:16:28;;;;;;;;;;;;;;;25.47;38.73;96997.53;4234245;28;5621;-66
2023/06/16 09:18:41;;;;;;;;;;;;;;;25.48;38.73;96991.03;4233368;28;5598;-66
2023/06/16 09:20:51;;;;;;;;;;;;;;;25.50;38.72;96988.84;4218545;28;5687;-66
2023/06/16 09:22:59;;;;;;;;;;;;;;;25.51;38.40;96992.38;4220629;28;5628;-66
2023/06/16 09:25:05;;;;;;;;;;;;;;;25.51;38.40;96984.25;4202670;28;5742;-65
2023/06/16 09:27:10;;;;;;;;;;;;;;;25.51;38.28;96990.47;4220603;28;5608;-66
2023/06/16 09:29:25;;;;;;;;;;;;;;;25.52;38.13;96992.06;4220525;28;5345;-66
2023/06/16 09:31:34;;;;;;;;;;;;;;;25.52;38.18;96989.38;4202215;28;5874;-66
2023/06/16 09:33:39;;;;;;;;;;;;;;;25.54;38.39;96987.19;4220312;28;5692;-66
2023/06/16 09:35:44;;;;;;;;;;;;;;;25.55;38.01;96988.78;4220110;28;5608;-67
2023/06/16 09:37:48;;;;;;;;;;;;;;;25.58;37.95;96989.31;4227673;28;5645;-66
2023/06/16 09:39:54;;;;;;;;;;;;;;;25.60;37.84;96981.75;4237033;28;5594;-65
2023/06/16 09:42:04;;;;;;;;;;;;;;;25.62;37.72;96982.25;4237110;28;5800;-65
2023/06/16 09:44:12;;;;;;;;;;;;;;;25.66;37.67;96986.00;4236791;28;5595;-65
2023/06/16 09:46:16;;;;;;;;;;;;;;;25.67;37.27;96988.41;4236876;28;5702;-65
2023/06/16 09:48:20;;;;;;;;;;;;;;;25.68;37.25;96984.63;4236855;28;5602;-65
2023/06/16 09:50:25;;;;;;;;;;;;;;;25.67;37.45;96982.19;4236571;28;5594;-65
2023/06/16 09:52:33;;;;;;;;;;;;;;;25.65;36.81;96982.50;4230014;28;5605;-65
2023/06/16 09:54:37;;;;;;;;;;;;;;;25.67;36.80;96979.50;4221371;28;5832;-81
2023/06/16 09:56:42;;;;;;;;;;;;;;;25.70;36.65;96981.66;4221341;28;5632;-81
2023/06/16 09:58:50;;;;;;;;;;;;;;;25.70;36.87;96978.94;4221357;28;5637;-81
2023/06/16 10:00:53;;;;;;;;;;;;;;;25.70;36.72;96984.34;4203682;28;5714;-81
2023/06/16 10:02:57;;;;;;;;;;;;;;;25.69;36.86;96982.72;4203399;28;5635;-81
2023/06/16 10:05:04;;;;;;;;;;;;;;;25.71;36.47;96983.25;4221320;28;5763;-82
2023/06/16 10:07:10;;;;;;;;;;;;;;;25.73;36.46;96981.09;4206678;28;5635;-81
2023/06/16 10:09:15;;;;;;;;;;;;;;;25.74;36.93;96975.41;4238260;28;5658;-82
2023/06/16 10:11:20;;;;;;;;;;;;;;;25.76;36.52;96977.81;4235263;28;6614;-80
2023/06/16 10:13:26;;;;;;;;;;;;;;;25.76;36.72;96972.41;4231608;28;5695;-72
2023/06/16 10:15:35;;;;;;;;;;;;;;;25.78;36.39;96983.75;4238565;28;5614;-86
2023/06/16 10:17:40;;;;;;;;;;;;;;;25.78;36.71;96975.63;4238008;28;5662;-72
2023/06/16 10:19:49;;;;;;;;;;;;;;;25.78;36.28;96973.72;4237517;28;5651;-70
2023/06/16 10:21:53;;;;;;;;;;;;;;;25.81;36.31;96983.16;4218593;28;5695;-76
2023/06/16 10:23:57;;;;;;;;;;;;;;;25.81;36.21;96975.03;4220650;28;5649;-77
2023/06/16 10:26:01;;;;;;;;;;;;;;;25.83;36.53;96970.97;4221250;28;5636;-84
2023/06/16 10:28:11;;;;;;;;;;;;;;;25.85;36.25;96973.41;4213454;28;5748;-84
2023/06/16 10:30:19;;;;;;;;;;;;;;;25.87;36.09;96973.09;4239285;28;5614;-85
2023/06/16 10:32:24;;;;;;;;;;;;;;;25.88;36.41;96970.09;4237609;28;5606;-85
2023/06/16 10:34:28;;;;;;;;;;;;;;;25.90;36.11;96965.22;4228899;28;5790;-84
2023/06/16 10:36:36;;;;;;;;;;;;;;;25.90;36.41;96967.09;4203984;28;5812;-82
2023/06/16 10:38:39;;;;;;;;;;;;;;;25.89;36.17;96965.50;4221140;28;5818;-83
2023/06/16 10:40:44;;;;;;;;;;;;;;;25.91;35.88;96964.09;4237658;28;5775;-83
2023/06/16 10:42:49;;;;;;;;;;;;;;;25.93;35.91;96967.34;4227122;28;5620;-82
2023/06/16 10:44:53;;;;;;;;;;;;;;;25.94;35.82;96966.25;4220722;28;5620;-82
2023/06/16 10:47:28;;;;;;;;;;;;;;;25.95;35.98;96957.03;4221215;28;6504;-83
2023/06/16 10:49:32;;;;;;;;;;;;;;;25.98;35.80;96961.88;4193779;28;5735;-82
2023/06/16 10:51:44;;;;;;;;;;;;;;;25.99;35.58;96960.78;4228516;28;5751;-82
2023/06/16 10:53:51;;;;;;;;;;;;;;;26.01;35.79;96968.63;4224696;28;5731;-82
2023/06/16 10:56:05;;;;;;;;;;;;;;;26.05;35.38;96966.97;4220852;28;5620;-82
2023/06/16 10:58:30;;;;;;;;;;;;;;;26.06;35.64;96961.25;4232442;28;6636;-82
2023/06/16 11:00:34;;;;;;;;;;;;;;;26.06;35.34;96961.25;4221752;28;5818;-83
2023/06/16 11:02:48;;;;;;;;;;;;;;;26.08;35.19;96971.78;4222237;28;5684;-82
2023/06/16 11:05:11;;;;;;;;;;;;;;;26.10;34.96;96966.91;4232505;28;5626;-82
2023/06/16 11:07:14;;;;;;;;;;;;;;;26.12;35.42;96967.41;4227505;28;5597;-82
2023/06/16 11:09:38;;;;;;;;;;;;;;;26.13;35.18;96958.97;4230306;28;5672;-81
2023/06/16 11:11:41;;;;;;;;;;;;;;;26.15;35.39;96953.28;4227512;28;7675;-82
2023/06/16 11:13:44;;;;;;;;;;;;;;;26.18;35.21;96954.63;4212611;28;5652;-81
2023/06/16 11:15:47;;;;;;;;;;;;;;;26.17;35.17;96953.00;4227945;28;5857;-82
2023/06/16 11:17:53;;;;;;;;;;;;;;;26.18;35.20;96957.31;4229966;28;5621;-81
2023/06/16 11:19:57;;;;;;;;;;;;;;;26.20;35.24;96950.53;4228259;28;5822;-82
2023/06/16 11:22:03;;;;;;;;;;;;;;;26.22;35.38;96944.81;4229839;28;5617;-82
2023/06/16 11:24:10;;;;;;;;;;;;;;;26.23;35.28;96951.84;4221421;28;5618;-82
2023/06/16 11:26:17;;;;;;;;;;;;;;;26.27;35.10;96948.25;4229223;28;5673;-83
2023/06/16 11:28:20;;;;;;;;;;;;;;;26.31;35.32;96945.78;4209310;28;5272;-82
2023/06/16 11:30:25;;;;;;;;;;;;;;;26.32;35.10;96948.19;4228767;28;5693;-82
2023/06/16 11:32:30;;;;;;;;;;;;;;;26.32;35.41;96950.91;4227024;28;5105;-82
2023/06/16 11:34:39;;;;;;;;;;;;;;;26.31;35.09;96943.88;4226597;28;6461;-82
2023/06/16 11:36:47;;;;;;;;;;;;;;;26.34;35.43;96939.78;4228035;28;5839;-82
2023/06/16 11:38:55;;;;;;;;;;;;;;;26.36;35.36;96940.28;4227990;28;5652;-81
2023/06/16 11:40:58;;;;;;;;;;;;;;;26.36;35.40;96943.84;4226530;28;5684;-81
2023/06/16 11:43:16;;;;;;;;;;;;;;;26.37;35.49;96939.22;4226275;28;5702;-78
2023/06/16 11:45:19;;;;;;;;;;;;;;;26.38;35.30;96936.22;4227476;28;6352;-82
2023/06/16 11:47:22;;;;;;;;;;;;;;;26.39;35.27;96945.97;4208205;28;5768;-82
2023/06/16 11:49:26;;;;;;;;;;;;;;;26.42;35.68;96943.78;4227693;28;5610;-82
2023/06/16 11:51:38;;;;;;;;;;;;;;;26.45;35.45;96946.72;4226064;28;5760;-82
2023/06/16 11:53:42;;;;;;;;;;;;;;;26.48;35.15;96940.69;4212210;28;5755;-82
2023/06/16 11:55:54;;;;;;;;;;;;;;;26.47;34.95;96941.78;4231258;28;5718;-82
2023/06/16 11:57:58;;;;;;;;;;;;;;;26.47;35.01;96939.09;4231840;28;5712;-82
2023/06/16 12:00:11;;;;;;;;;;;;;;;26.49;34.99;96936.88;4213396;28;5728;-81
2023/06/16 12:02:15;;;;;;;;;;;;;;;26.50;34.70;96935.78;4225083;28;6428;-82
2023/06/16 12:04:19;;;;;;;;;;;;;;;26.52;34.63;96936.31;4222871;28;5691;-82
2023/06/16 12:06:23;;;;;;;;;;;;;;;26.52;34.69;96936.31;4230997;28;5812;-83
2023/06/16 12:08:46;;;;;;;;;;;;;;;26.53;34.49;96932.50;4229888;28;6654;-82
2023/06/16 12:10:55;;;;;;;;;;;;;;;26.53;34.45;96927.09;4215469;28;5703;-82
2023/06/16 12:13:00;;;;;;;;;;;;;;;26.54;34.24;96934.13;4233705;28;5718;-82
2023/06/16 12:15:07;;;;;;;;;;;;;;;26.58;34.11;96932.44;4207556;28;5745;-83
2023/06/16 12:17:13;;;;;;;;;;;;;;;26.60;34.21;96934.84;4223527;28;5653;-82
2023/06/16 12:19:19;;;;;;;;;;;;;;;26.61;34.19;96923.69;4223268;28;5814;-82
2023/06/16 12:21:24;;;;;;;;;;;;;;;26.61;34.05;96928.31;4227060;28;6456;-82
2023/06/16 12:23:35;;;;;;;;;;;;;;;26.62;34.18;96919.13;4225295;28;5777;-83
2023/06/16 12:25:41;;;;;;;;;;;;;;;26.63;34.12;96920.72;4223255;28;5735;-82
2023/06/16 12:27:45;;;;;;;;;;;;;;;26.62;34.12;96919.13;4228996;28;6248;-82
2023/06/16 12:29:49;;;;;;;;;;;;;;;26.62;33.67;96906.38;4208391;28;5628;-81
2023/06/16 12:31:53;;;;;;;;;;;;;;;26.64;33.65;96915.00;4229131;28;5727;-81
2023/06/16 12:33:57;;;;;;;;;;;;;;;26.65;33.52;96913.91;4226822;28;5627;-81
2023/06/16 12:36:09;;;;;;;;;;;;;;;26.66;33.20;96910.09;4233470;28;5927;-82
2023/06/16 12:38:13;;;;;;;;;;;;;;;26.65;33.23;96907.69;4229086;28;5096;-82
2023/06/16 12:40:29;;;;;;;;;;;;;;;26.65;33.17;96903.06;4228891;28;5601;-82
2023/06/16 12:42:36;;;;;;;;;;;;;;;26.64;33.17;96896.03;4224147;28;5784;-82
2023/06/16 12:44:42;;;;;;;;;;;;;;;26.67;33.18;96905.47;4225830;28;5640;-82
2023/06/16 12:46:48;;;;;;;;;;;;;;;26.67;33.52;96910.91;4226096;28;6421;-82
2023/06/16 12:48:52;;;;;;;;;;;;;;;26.67;33.20;96900.03;4231653;28;5601;-82
2023/06/16 12:50:55;;;;;;;;;;;;;;;26.67;33.19;96911.69;4228496;28;5692;-83
2023/06/16 12:53:00;;;;;;;;;;;;;;;26.68;33.10;96907.06;4227926;28;5665;-82
2023/06/16 12:55:04;;;;;;;;;;;;;;;26.69;33.15;96904.06;4208714;28;5769;-82
2023/06/16 12:57:08;;;;;;;;;;;;;;;26.70;33.33;96897.53;4238350;28;5696;-83
2023/06/16 12:59:14;;;;;;;;;;;;;;;26.70;33.67;96896.75;4218550;28;5684;-82
2023/06/16 13:01:21;;;;;;;;;;;;;;;26.70;33.85;96894.84;4231238;28;5609;-82
2023/06/16 13:03:24;;;;;;;;;;;;;;;26.70;33.85;96894.84;4211579;28;5702;-81
2023/06/16 13:05:27;;;;;;;;;;;;;;;26.71;33.60;96901.06;4208389;28;5910;-81
2023/06/16 13:07:31;;;;;;;;;;;;;;;26.74;33.48;96896.97;4233249;28;5661;-82
2023/06/16 13:09:37;;;;;;;;;;;;;;;26.76;33.40;96897.50;4235098;28;5601;-82
2023/06/16 13:11:41;;;;;;;;;;;;;;;26.80;33.83;96907.44;4231508;28;5658;-82
2023/06/16 13:13:44;;;;;;;;;;;;;;;26.84;33.85;96902.22;4229112;28;5613;-82
2023/06/16 13:15:49;;;;;;;;;;;;;;;26.86;34.02;96897.34;4230260;28;6617;-81
2023/06/16 13:17:54;;;;;;;;;;;;;;;26.87;33.87;96898.94;4210200;28;5617;-81
2023/06/16 13:19:57;;;;;;;;;;;;;;;26.88;34.07;96895.13;4232182;28;5610;-79
2023/06/16 13:22:01;;;;;;;;;;;;;;;26.87;34.32;96904.38;4233106;28;5713;-82
2023/06/16 13:24:08;;;;;;;;;;;;;;;26.87;34.18;96899.75;4232049;28;5617;-81
2023/06/16 13:26:11;;;;;;;;;;;;;;;26.89;34.38;96891.31;4229009;28;5604;-81
2023/06/16 13:28:14;;;;;;;;;;;;;;;26.88;34.47;96898.66;4224541;28;5877;-81
2023/06/16 13:30:18;;;;;;;;;;;;;;;26.89;34.60;96886.69;4238219;28;5609;-81
2023/06/16 13:32:23;;;;;;;;;;;;;;;26.92;34.48;96896.94;4236603;27;5627;-81
2023/06/16 13:34:26;;;;;;;;;;;;;;;26.94;34.68;96891.22;4228134;28;5743;-82
2023/06/16 13:36:32;;;;;;;;;;;;;;;26.94;34.52;96893.94;4229508;28;5684;-82
2023/06/16 13:38:36;;;;;;;;;;;;;;;26.91;34.27;96892.63;4231454;28;5624;-82
2023/06/16 13:40:39;;;;;;;;;;;;;;;26.93;34.09;96892.31;4233605;28;5602;-82
2023/06/16 13:42:42;;;;;;;;;;;;;;;26.95;33.96;96898.25;4236616;28;5621;-84
2023/06/16 13:44:45;;;;;;;;;;;;;;;26.95;34.11;96887.41;4208335;28;6202;-73
2023/06/16 13:46:51;;;;;;;;;;;;;;;26.95;33.95;96877.34;4217061;28;5860;-80
2023/06/16 13:48:56;;;;;;;;;;;;;;;26.96;33.61;96886.31;4234033;28;5733;-79
2023/06/16 13:51:00;;;;;;;;;;;;;;;26.96;33.75;96881.69;4218121;28;5792;-80
2023/06/16 13:53:03;;;;;;;;;;;;;;;26.97;33.78;96883.31;4236510;28;5726;-79
2023/06/16 13:55:07;;;;;;;;;;;;;;;26.97;33.69;96882.50;4233070;28;5698;-78
2023/06/16 13:57:12;;;;;;;;;;;;;;;26.97;33.59;96879.78;4212787;28;5785;-78
2023/06/16 13:59:15;;;;;;;;;;;;;;;26.97;33.58;96879.78;4234592;28;5780;-79
2023/06/16 14:01:18;;;;;;;;;;;;;;;26.97;33.40;96871.66;4222907;28;5716;-81
2023/06/16 14:03:21;;;;;;;;;;;;;;;26.99;33.13;96874.88;4236913;28;5669;-80
2023/06/16 14:05:28;;;;;;;;;;;;;;;26.99;33.33;96864.03;4233470;28;5673;-81
2023/06/16 14:07:33;;;;;;;;;;;;;;;27.01;32.98;96866.44;4232523;28;5973;-80
2023/06/16 14:09:39;;;;;;;;;;;;;;;27.02;33.33;96868.88;4235547;28;5601;-80
2023/06/16 14:11:45;;;;;;;;;;;;;;;26.99;33.08;96864.03;4235962;28;5828;-80
2023/06/16 14:13:49;;;;;;;;;;;;;;;26.98;33.02;96857.00;4236555;28;6271;-80
2023/06/16 14:15:52;;;;;;;;;;;;;;;26.99;33.23;96858.59;4236908;28;5812;-80
2023/06/16 14:17:55;;;;;;;;;;;;;;;27.01;33.04;96850.16;4221669;28;5652;-80
2023/06/16 14:19:59;;;;;;;;;;;;;;;27.01;33.25;96850.16;4231727;28;5677;-80
2023/06/16 14:22:03;;;;;;;;;;;;;;;27.00;33.02;96849.34;4231910;28;5605;-79
2023/06/16 14:24:06;;;;;;;;;;;;;;;27.00;33.19;96846.63;4228349;28;5822;-79
2023/06/16 14:26:10;;;;;;;;;;;;;;;26.98;32.89;96844.22;4233195;28;5602;-79
2023/06/16 14:28:14;;;;;;;;;;;;;;;26.97;33.02;96833.69;4222592;28;5755;-79
2023/06/16 14:30:17;;;;;;;;;;;;;;;26.98;33.00;96838.00;4233339;28;5701;-79
2023/06/16 14:32:21;;;;;;;;;;;;;;;26.98;33.20;96836.09;4226439;28;5689;-79
2023/06/16 14:34:26;;;;;;;;;;;;;;;27.00;32.98;96838.50;4220970;28;5669;-78
2023/06/16 14:36:30;;;;;;;;;;;;;;;27.01;32.82;96839.31;4223321;28;5731;-78
2023/06/16 14:38:35;;;;;;;;;;;;;;;27.00;33.08;96833.06;4229454;28;5618;-79
2023/06/16 14:40:38;;;;;;;;;;;;;;;27.01;33.14;96834.69;4231451;28;5665;-79
2023/06/16 14:42:41;;;;;;;;;;;;;;;27.04;32.75;96828.69;4229553;28;5598;-79
2023/06/16 14:44:44;;;;;;;;;;;;;;;27.07;32.64;96819.97;4230891;28;5598;-78
2023/06/16 14:46:47;;;;;;;;;;;;;;;27.08;32.71;96827.00;4230952;28;6464;-79
2023/06/16 14:48:50;;;;;;;;;;;;;;;27.10;32.42;96822.09;4226980;28;5704;-75
2023/06/16 14:50:54;;;;;;;;;;;;;;;27.12;32.40;96824.50;4229051;28;5696;-78
2023/06/16 14:52:57;;;;;;;;;;;;;;;27.11;32.37;96820.97;4225040;28;5761;-79
2023/06/16 14:55:02;;;;;;;;;;;;;;;27.11;32.38;96817.47;4229723;28;5701;-79
2023/06/16 14:57:06;;;;;;;;;;;;;;;27.11;32.58;96817.47;4226526;28;5737;-78
2023/06/16 14:59:09;;;;;;;;;;;;;;;27.12;32.41;96824.50;4210160;28;5620;-79
2023/06/16 15:01:13;;;;;;;;;;;;;;;27.14;32.62;96827.72;4230346;28;5743;-79
2023/06/16 15:03:16;;;;;;;;;;;;;;;27.14;32.44;96822.28;4230809;27;5705;-78
2023/06/16 15:05:20;;;;;;;;;;;;;;;27.15;32.12;96813.84;4232581;27;5748;-79
2023/06/16 15:07:23;;;;;;;;;;;;;;;27.18;32.19;96826.81;4227900;28;5716;-79
2023/06/16 15:09:27;;;;;;;;;;;;;;;27.19;32.24;96823.00;4225809;28;5700;-79
2023/06/16 15:11:32;;;;;;;;;;;;;;;27.20;32.53;96815.66;4225740;28;6003;-80
2023/06/16 15:13:35;;;;;;;;;;;;;;;27.23;32.54;96820.50;4227283;28;5614;-79
2023/06/16 15:15:38;;;;;;;;;;;;;;;27.23;32.31;96818.59;4230850;27;5671;-81
2023/06/16 15:17:41;;;;;;;;;;;;;;;27.24;32.46;96817.47;4232447;28;5807;-80
2023/06/16 15:19:45;;;;;;;;;;;;;;;27.25;32.58;96819.09;4234862;28;5614;-79
2023/06/16 15:21:48;;;;;;;;;;;;;;;27.25;32.51;96816.38;4226724;28;5713;-80
2023/06/16 15:23:51;;;;;;;;;;;;;;;27.25;32.17;96816.38;4234728;28;5791;-83
2023/06/16 15:25:54;;;;;;;;;;;;;;;27.25;32.23;96813.66;4230095;28;5610;-79
2023/06/16 15:27:58;;;;;;;;;;;;;;;27.26;32.55;96811.75;4227159;28;5915;-80
2023/06/16 15:30:14;;;;;;;;;;;;;;;27.25;32.43;96813.66;4220011;28;5668;-80
2023/06/16 15:32:17;;;;;;;;;;;;;;;27.25;32.20;96816.38;4236219;28;5622;-80
2023/06/16 15:34:21;;;;;;;;;;;;;;;27.23;32.23;96809.63;4235391;28;5651;-80
2023/06/16 15:36:24;;;;;;;;;;;;;;;27.24;32.02;96812.06;4233316;28;5417;-80
2023/06/16 15:38:28;;;;;;;;;;;;;;;27.23;32.29;96812.34;4229352;28;5687;-80
2023/06/16 15:40:32;;;;;;;;;;;;;;;27.25;31.96;96810.94;4235235;28;5705;-80
2023/06/16 15:42:35;;;;;;;;;;;;;;;27.27;31.97;96814.16;4235446;28;5625;-80
2023/06/16 15:44:39;;;;;;;;;;;;;;;27.25;32.04;96813.66;4234923;28;5681;-80